sensor_id;sensor_type;location;lat;lon;timestamp;temperature;humidity
6106;DHT22;3083;51.508;7.966;2024-01-11T00:00:09;-6.80;99.90
6106;DHT22;3083;51.508;7.966;2024-01-11T00:02:37;-6.90;99.90
6106;DHT22;3083;51.508;7.966;2024-01-11T00:05:05;-6.90;99.90
6106;DHT22;3083;51.508;7.966;2024-01-11T00:07:32;-6.90;99.90
6106;DHT22;3083;51.508;7.966;2024-01-11T00:10:00;-6.90;99.90
6106;DHT22;3083;51.508;7.966;2024-01-11T00:12:27;-6.90;99.90
6106;DHT22;3083;51.508;7.966;2024-01-11T00:14:54;-7.00;99.90
6106;DHT22;3083;51.508;7.966;2024-01-11T00:17:21;-7.00;99.90
6106;DHT22;3083;51.508;7.966;2024-01-11T00:19:49;-7.10;99.90
6106;DHT22;3083;51.508;7.966;2024-01-11T00:22:17;-7.10;99.90
6106;DHT22;3083;51.508;7.966;2024-01-11T00:24:43;-7.10;99.90
6106;DHT22;3083;51.508;7.966;2024-01-11T00:27:10;-7.10;99.90
6106;DHT22;3083;51.508;7.966;2024-01-11T00:29:37;-7.20;99.90
6106;DHT22;3083;51.508;7.966;2024-01-11T00:32:04;-7.20;99.90
6106;DHT22;3083;51.508;7.966;2024-01-11T00:34:31;-7.30;99.90
6106;DHT22;3083;51.508;7.966;2024-01-11T00:36:59;-7.30;99.90
6106;DHT22;3083;51.508;7.966;2024-01-11T00:39:26;-7.30;99.90
6106;DHT22;3083;51.508;7.966;2024-01-11T00:41:53;-7.30;99.90
6106;DHT22;3083;51.508;7.966;2024-01-11T00:44:20;-7.30;99.90
6106;DHT22;3083;51.508;7.966;2024-01-11T00:46:47;-7.30;99.90
6106;DHT22;3083;51.508;7.966;2024-01-11T00:49:14;-7.30;99.90
6106;DHT22;3083;51.508;7.966;2024-01-11T00:51:41;-7.30;99.90
6106;DHT22;3083;51.508;7.966;2024-01-11T00:54:09;-7.40;99.90
6106;DHT22;3083;51.508;7.966;2024-01-11T00:56:36;-7.40;99.90
6106;DHT22;3083;51.508;7.966;2024-01-11T00:59:03;-7.40;99.90
6106;DHT22;3083;51.508;7.966;2024-01-11T01:01:30;-7.40;99.90
6106;DHT22;3083;51.508;7.966;2024-01-11T01:03:57;-7.40;99.90
6106;DHT22;3083;51.508;7.966;2024-01-11T01:06:24;-7.40;99.90
6106;DHT22;3083;51.508;7.966;2024-01-11T01:08:51;-7.40;99.90
6106;DHT22;3083;51.508;7.966;2024-01-11T01:11:19;-7.40;99.90
6106;DHT22;3083;51.508;7.966;2024-01-11T01:13:46;-7.40;99.90
6106;DHT22;3083;51.508;7.966;2024-01-11T01:16:13;-7.50;99.90
6106;DHT22;3083;51.508;7.966;2024-01-11T01:18:40;-7.50;99.90
6106;DHT22;3083;51.508;7.966;2024-01-11T01:21:07;-7.60;99.90
6106;DHT22;3083;51.508;7.966;2024-01-11T01:23:34;-7.60;99.90
6106;DHT22;3083;51.508;7.966;2024-01-11T01:26:00;-7.60;99.90
6106;DHT22;3083;51.508;7.966;2024-01-11T01:28:29;-7.70;99.90
6106;DHT22;3083;51.508;7.966;2024-01-11T01:30:55;-7.70;99.90
6106;DHT22;3083;51.508;7.966;2024-01-11T01:33:22;-7.70;99.90
6106;DHT22;3083;51.508;7.966;2024-01-11T01:35:49;-7.80;99.90
6106;DHT22;3083;51.508;7.966;2024-01-11T01:38:16;-7.80;99.90
6106;DHT22;3083;51.508;7.966;2024-01-11T01:40:43;-7.80;99.90
6106;DHT22;3083;51.508;7.966;2024-01-11T01:43:10;-7.80;99.90
6106;DHT22;3083;51.508;7.966;2024-01-11T01:45:39;-7.80;99.90
6106;DHT22;3083;51.508;7.966;2024-01-11T01:48:07;-7.80;99.90
6106;DHT22;3083;51.508;7.966;2024-01-11T01:50:34;-7.90;99.90
6106;DHT22;3083;51.508;7.966;2024-01-11T01:53:00;-8.00;99.90
6106;DHT22;3083;51.508;7.966;2024-01-11T01:55:29;-7.90;99.90
6106;DHT22;3083;51.508;7.966;2024-01-11T01:57:56;-7.90;99.90
6106;DHT22;3083;51.508;7.966;2024-01-11T02:00:24;-7.90;99.90
6106;DHT22;3083;51.508;7.966;2024-01-11T02:02:55;-8.00;99.90
6106;DHT22;3083;51.508;7.966;2024-01-11T02:05:23;-7.90;99.90
6106;DHT22;3083;51.508;7.966;2024-01-11T02:07:50;-7.90;99.90
6106;DHT22;3083;51.508;7.966;2024-01-11T02:10:17;-7.90;99.90
6106;DHT22;3083;51.508;7.966;2024-01-11T02:12:45;-7.90;99.90
6106;DHT22;3083;51.508;7.966;2024-01-11T02:15:13;-7.90;99.90
6106;DHT22;3083;51.508;7.966;2024-01-11T02:17:41;-7.90;99.90
6106;DHT22;3083;51.508;7.966;2024-01-11T02:20:10;-7.90;99.90
6106;DHT22;3083;51.508;7.966;2024-01-11T02:22:40;-7.90;99.90
6106;DHT22;3083;51.508;7.966;2024-01-11T02:25:08;-7.90;99.90
6106;DHT22;3083;51.508;7.966;2024-01-11T02:27:45;-7.90;99.90
6106;DHT22;3083;51.508;7.966;2024-01-11T02:30:13;-7.90;99.90
6106;DHT22;3083;51.508;7.966;2024-01-11T02:32:40;-7.90;99.90
6106;DHT22;3083;51.508;7.966;2024-01-11T02:35:07;-7.90;99.90
6106;DHT22;3083;51.508;7.966;2024-01-11T02:37:36;-7.90;99.90
6106;DHT22;3083;51.508;7.966;2024-01-11T02:40:05;-7.90;99.90
6106;DHT22;3083;51.508;7.966;2024-01-11T02:42:34;-7.90;99.90
6106;DHT22;3083;51.508;7.966;2024-01-11T02:45:01;-8.00;99.90
6106;DHT22;3083;51.508;7.966;2024-01-11T02:47:29;-8.00;99.90
6106;DHT22;3083;51.508;7.966;2024-01-11T02:49:56;-8.00;99.90
6106;DHT22;3083;51.508;7.966;2024-01-11T02:52:25;-8.10;99.90
6106;DHT22;3083;51.508;7.966;2024-01-11T02:54:52;-8.10;99.90
6106;DHT22;3083;51.508;7.966;2024-01-11T02:57:18;-8.20;99.90
6106;DHT22;3083;51.508;7.966;2024-01-11T02:59:47;-8.20;99.90
6106;DHT22;3083;51.508;7.966;2024-01-11T03:02:13;-8.20;99.90
6106;DHT22;3083;51.508;7.966;2024-01-11T03:04:40;-8.20;99.90
6106;DHT22;3083;51.508;7.966;2024-01-11T03:07:07;-8.30;99.90
6106;DHT22;3083;51.508;7.966;2024-01-11T03:09:34;-8.20;99.90
6106;DHT22;3083;51.508;7.966;2024-01-11T03:12:01;-8.30;99.90
6106;DHT22;3083;51.508;7.966;2024-01-11T03:14:28;-8.30;99.90
6106;DHT22;3083;51.508;7.966;2024-01-11T03:16:56;-8.30;99.90
6106;DHT22;3083;51.508;7.966;2024-01-11T03:19:23;-8.30;99.90
6106;DHT22;3083;51.508;7.966;2024-01-11T03:21:50;-8.30;99.90
6106;DHT22;3083;51.508;7.966;2024-01-11T03:24:18;-8.30;99.90
6106;DHT22;3083;51.508;7.966;2024-01-11T03:26:45;-8.30;99.90
6106;DHT22;3083;51.508;7.966;2024-01-11T03:29:13;-8.30;99.90
6106;DHT22;3083;51.508;7.966;2024-01-11T03:31:40;-8.30;99.90
6106;DHT22;3083;51.508;7.966;2024-01-11T03:34:11;-8.30;99.90
6106;DHT22;3083;51.508;7.966;2024-01-11T03:36:38;-8.30;99.90
6106;DHT22;3083;51.508;7.966;2024-01-11T03:39:05;-8.20;99.90
6106;DHT22;3083;51.508;7.966;2024-01-11T03:41:32;-8.30;99.90
6106;DHT22;3083;51.508;7.966;2024-01-11T03:43:59;-8.30;99.90
6106;DHT22;3083;51.508;7.966;2024-01-11T03:46:26;-8.30;99.90
6106;DHT22;3083;51.508;7.966;2024-01-11T03:48:53;-8.40;99.90
6106;DHT22;3083;51.508;7.966;2024-01-11T03:51:20;-8.40;99.90
6106;DHT22;3083;51.508;7.966;2024-01-11T03:53:47;-8.40;99.90
6106;DHT22;3083;51.508;7.966;2024-01-11T03:56:14;-8.40;99.90
6106;DHT22;3083;51.508;7.966;2024-01-11T03:58:40;-8.40;99.90
6106;DHT22;3083;51.508;7.966;2024-01-11T04:01:10;-8.50;99.90
6106;DHT22;3083;51.508;7.966;2024-01-11T04:03:37;-8.50;99.90
6106;DHT22;3083;51.508;7.966;2024-01-11T04:06:04;-8.50;99.90
6106;DHT22;3083;51.508;7.966;2024-01-11T04:08:33;-8.40;99.90
6106;DHT22;3083;51.508;7.966;2024-01-11T04:11:02;-8.40;99.90
6106;DHT22;3083;51.508;7.966;2024-01-11T04:13:29;-8.50;99.90
6106;DHT22;3083;51.508;7.966;2024-01-11T04:15:56;-8.50;99.90
6106;DHT22;3083;51.508;7.966;2024-01-11T04:18:23;-8.50;99.90
6106;DHT22;3083;51.508;7.966;2024-01-11T04:20:50;-8.60;99.90
6106;DHT22;3083;51.508;7.966;2024-01-11T04:23:16;-8.60;99.90
6106;DHT22;3083;51.508;7.966;2024-01-11T04:25:45;-8.60;99.90
6106;DHT22;3083;51.508;7.966;2024-01-11T04:28:12;-8.70;99.90
6106;DHT22;3083;51.508;7.966;2024-01-11T04:30:39;-8.70;99.90
6106;DHT22;3083;51.508;7.966;2024-01-11T04:33:05;-8.70;99.90
6106;DHT22;3083;51.508;7.966;2024-01-11T04:35:32;-8.70;99.90
6106;DHT22;3083;51.508;7.966;2024-01-11T04:37:59;-8.70;99.90
6106;DHT22;3083;51.508;7.966;2024-01-11T04:40:26;-8.70;99.90
6106;DHT22;3083;51.508;7.966;2024-01-11T04:42:54;-8.80;99.90
6106;DHT22;3083;51.508;7.966;2024-01-11T04:45:21;-8.80;99.90
6106;DHT22;3083;51.508;7.966;2024-01-11T04:47:50;-8.80;99.90
6106;DHT22;3083;51.508;7.966;2024-01-11T04:50:17;-8.80;99.90
6106;DHT22;3083;51.508;7.966;2024-01-11T04:52:44;-8.70;99.90
6106;DHT22;3083;51.508;7.966;2024-01-11T04:55:11;-8.70;99.90
6106;DHT22;3083;51.508;7.966;2024-01-11T04:57:38;-8.70;99.90
6106;DHT22;3083;51.508;7.966;2024-01-11T05:00:07;-8.70;99.90
6106;DHT22;3083;51.508;7.966;2024-01-11T05:02:34;-8.70;99.90
6106;DHT22;3083;51.508;7.966;2024-01-11T05:05:01;-8.70;99.90
6106;DHT22;3083;51.508;7.966;2024-01-11T05:07:28;-8.70;99.90
6106;DHT22;3083;51.508;7.966;2024-01-11T05:09:55;-8.80;99.90
6106;DHT22;3083;51.508;7.966;2024-01-11T05:12:21;-8.70;99.90
6106;DHT22;3083;51.508;7.966;2024-01-11T05:14:48;-8.70;99.90
6106;DHT22;3083;51.508;7.966;2024-01-11T05:17:16;-8.70;99.90
6106;DHT22;3083;51.508;7.966;2024-01-11T05:19:43;-8.70;99.90
6106;DHT22;3083;51.508;7.966;2024-01-11T05:22:10;-8.70;99.90
6106;DHT22;3083;51.508;7.966;2024-01-11T05:24:37;-8.70;99.90
6106;DHT22;3083;51.508;7.966;2024-01-11T05:27:04;-8.70;99.90
6106;DHT22;3083;51.508;7.966;2024-01-11T05:29:31;-8.70;99.90
6106;DHT22;3083;51.508;7.966;2024-01-11T05:31:58;-8.80;99.90
6106;DHT22;3083;51.508;7.966;2024-01-11T05:34:26;-8.80;99.90
6106;DHT22;3083;51.508;7.966;2024-01-11T05:36:53;-8.80;99.90
6106;DHT22;3083;51.508;7.966;2024-01-11T05:39:19;-8.80;99.90
6106;DHT22;3083;51.508;7.966;2024-01-11T05:41:46;-8.80;99.90
6106;DHT22;3083;51.508;7.966;2024-01-11T05:44:13;-8.90;99.90
6106;DHT22;3083;51.508;7.966;2024-01-11T05:46:40;-8.90;99.90
6106;DHT22;3083;51.508;7.966;2024-01-11T05:49:07;-8.90;99.90
6106;DHT22;3083;51.508;7.966;2024-01-11T05:51:35;-8.90;99.90
6106;DHT22;3083;51.508;7.966;2024-01-11T05:54:02;-8.90;99.90
6106;DHT22;3083;51.508;7.966;2024-01-11T05:56:29;-8.90;99.90
6106;DHT22;3083;51.508;7.966;2024-01-11T05:58:56;-8.90;99.90
6106;DHT22;3083;51.508;7.966;2024-01-11T06:01:24;-9.00;99.90
6106;DHT22;3083;51.508;7.966;2024-01-11T06:03:51;-9.00;99.90
6106;DHT22;3083;51.508;7.966;2024-01-11T06:06:18;-9.00;99.90
6106;DHT22;3083;51.508;7.966;2024-01-11T06:08:46;-9.00;99.90
6106;DHT22;3083;51.508;7.966;2024-01-11T06:11:14;-9.00;99.90
6106;DHT22;3083;51.508;7.966;2024-01-11T06:13:41;-9.00;99.90
6106;DHT22;3083;51.508;7.966;2024-01-11T06:16:07;-9.00;99.90
6106;DHT22;3083;51.508;7.966;2024-01-11T06:18:35;-9.10;99.90
6106;DHT22;3083;51.508;7.966;2024-01-11T06:21:02;-9.10;99.90
6106;DHT22;3083;51.508;7.966;2024-01-11T06:23:29;-9.10;99.90
6106;DHT22;3083;51.508;7.966;2024-01-11T06:25:57;-9.10;99.90
6106;DHT22;3083;51.508;7.966;2024-01-11T06:28:24;-9.00;99.90
6106;DHT22;3083;51.508;7.966;2024-01-11T06:30:50;-9.00;99.90
6106;DHT22;3083;51.508;7.966;2024-01-11T06:33:19;-8.90;99.90
6106;DHT22;3083;51.508;7.966;2024-01-11T06:35:46;-8.90;99.90
6106;DHT22;3083;51.508;7.966;2024-01-11T06:38:13;-8.90;99.90
6106;DHT22;3083;51.508;7.966;2024-01-11T06:40:40;-8.80;99.90
6106;DHT22;3083;51.508;7.966;2024-01-11T06:43:09;-8.80;99.90
6106;DHT22;3083;51.508;7.966;2024-01-11T06:45:37;-8.80;99.90
6106;DHT22;3083;51.508;7.966;2024-01-11T06:48:05;-8.80;99.90
6106;DHT22;3083;51.508;7.966;2024-01-11T06:50:32;-8.80;99.90
6106;DHT22;3083;51.508;7.966;2024-01-11T06:52:59;-8.80;99.90
6106;DHT22;3083;51.508;7.966;2024-01-11T06:55:26;-8.80;99.90
6106;DHT22;3083;51.508;7.966;2024-01-11T06:57:53;-8.70;99.90
6106;DHT22;3083;51.508;7.966;2024-01-11T07:00:22;-8.70;99.90
6106;DHT22;3083;51.508;7.966;2024-01-11T07:02:48;-8.70;99.90
6106;DHT22;3083;51.508;7.966;2024-01-11T07:05:15;-8.70;99.90
6106;DHT22;3083;51.508;7.966;2024-01-11T07:07:42;-8.70;99.90
6106;DHT22;3083;51.508;7.966;2024-01-11T07:10:09;-8.70;99.90
6106;DHT22;3083;51.508;7.966;2024-01-11T07:12:38;-8.80;99.90
6106;DHT22;3083;51.508;7.966;2024-01-11T07:15:08;-8.80;99.90
6106;DHT22;3083;51.508;7.966;2024-01-11T07:17:36;-8.80;99.90
6106;DHT22;3083;51.508;7.966;2024-01-11T07:20:03;-8.80;99.90
6106;DHT22;3083;51.508;7.966;2024-01-11T07:22:30;-8.80;99.90
6106;DHT22;3083;51.508;7.966;2024-01-11T07:24:57;-8.80;99.90
6106;DHT22;3083;51.508;7.966;2024-01-11T07:27:24;-8.80;99.90
6106;DHT22;3083;51.508;7.966;2024-01-11T07:29:51;-8.80;99.90
6106;DHT22;3083;51.508;7.966;2024-01-11T07:32:18;-8.80;99.90
6106;DHT22;3083;51.508;7.966;2024-01-11T07:34:46;-8.80;99.90
6106;DHT22;3083;51.508;7.966;2024-01-11T07:37:13;-8.80;99.90
6106;DHT22;3083;51.508;7.966;2024-01-11T07:39:40;-8.80;99.90
6106;DHT22;3083;51.508;7.966;2024-01-11T07:42:06;-8.70;99.90
6106;DHT22;3083;51.508;7.966;2024-01-11T07:44:33;-8.80;99.90
6106;DHT22;3083;51.508;7.966;2024-01-11T07:47:00;-8.70;99.90
6106;DHT22;3083;51.508;7.966;2024-01-11T07:49:27;-8.70;99.90
6106;DHT22;3083;51.508;7.966;2024-01-11T07:51:55;-8.70;99.90
6106;DHT22;3083;51.508;7.966;2024-01-11T07:54:22;-8.60;99.90
6106;DHT22;3083;51.508;7.966;2024-01-11T07:56:49;-8.60;99.90
6106;DHT22;3083;51.508;7.966;2024-01-11T07:59:15;-8.50;99.90
6106;DHT22;3083;51.508;7.966;2024-01-11T08:01:42;-8.40;99.90
6106;DHT22;3083;51.508;7.966;2024-01-11T08:04:09;-8.40;99.90
6106;DHT22;3083;51.508;7.966;2024-01-11T08:06:36;-8.30;99.90
6106;DHT22;3083;51.508;7.966;2024-01-11T08:09:04;-8.20;99.90
6106;DHT22;3083;51.508;7.966;2024-01-11T08:11:31;-8.10;99.90
6106;DHT22;3083;51.508;7.966;2024-01-11T08:13:58;-8.10;99.90
6106;DHT22;3083;51.508;7.966;2024-01-11T08:16:25;-8.00;99.90
6106;DHT22;3083;51.508;7.966;2024-01-11T08:18:52;-8.00;99.90
6106;DHT22;3083;51.508;7.966;2024-01-11T08:21:19;-7.90;99.90
6106;DHT22;3083;51.508;7.966;2024-01-11T08:23:46;-7.90;99.90
6106;DHT22;3083;51.508;7.966;2024-01-11T08:26:15;-7.80;99.90
6106;DHT22;3083;51.508;7.966;2024-01-11T08:28:44;-7.80;99.90
6106;DHT22;3083;51.508;7.966;2024-01-11T08:31:11;-7.70;99.90
6106;DHT22;3083;51.508;7.966;2024-01-11T08:33:38;-7.70;99.90
6106;DHT22;3083;51.508;7.966;2024-01-11T08:36:05;-7.60;99.90
6106;DHT22;3083;51.508;7.966;2024-01-11T08:38:32;-7.60;99.90
6106;DHT22;3083;51.508;7.966;2024-01-11T08:40:59;-7.50;99.90
6106;DHT22;3083;51.508;7.966;2024-01-11T08:43:28;-7.40;99.90
6106;DHT22;3083;51.508;7.966;2024-01-11T08:45:55;-7.40;99.90
6106;DHT22;3083;51.508;7.966;2024-01-11T08:48:22;-7.30;99.90
6106;DHT22;3083;51.508;7.966;2024-01-11T08:50:48;-7.30;99.90
6106;DHT22;3083;51.508;7.966;2024-01-11T08:53:15;-7.30;99.90
6106;DHT22;3083;51.508;7.966;2024-01-11T08:55:43;-7.20;99.90
6106;DHT22;3083;51.508;7.966;2024-01-11T08:58:09;-7.10;99.90
6106;DHT22;3083;51.508;7.966;2024-01-11T09:00:38;-7.10;99.90
6106;DHT22;3083;51.508;7.966;2024-01-11T09:03:05;-7.00;99.90
6106;DHT22;3083;51.508;7.966;2024-01-11T09:05:32;-7.00;99.90
6106;DHT22;3083;51.508;7.966;2024-01-11T09:07:59;-6.90;99.90
6106;DHT22;3083;51.508;7.966;2024-01-11T09:10:26;-6.80;99.90
6106;DHT22;3083;51.508;7.966;2024-01-11T09:12:53;-6.80;99.90
6106;DHT22;3083;51.508;7.966;2024-01-11T09:15:20;-6.70;99.90
6106;DHT22;3083;51.508;7.966;2024-01-11T09:17:48;-6.60;99.90
6106;DHT22;3083;51.508;7.966;2024-01-11T09:20:16;-6.50;99.90
6106;DHT22;3083;51.508;7.966;2024-01-11T09:22:44;-6.30;99.90
6106;DHT22;3083;51.508;7.966;2024-01-11T09:25:12;-6.20;99.90
6106;DHT22;3083;51.508;7.966;2024-01-11T09:27:39;-6.10;99.90
6106;DHT22;3083;51.508;7.966;2024-01-11T09:30:07;-6.00;99.90
6106;DHT22;3083;51.508;7.966;2024-01-11T09:32:34;-5.90;99.90
6106;DHT22;3083;51.508;7.966;2024-01-11T09:35:03;-5.80;99.90
6106;DHT22;3083;51.508;7.966;2024-01-11T09:37:30;-5.60;99.90
6106;DHT22;3083;51.508;7.966;2024-01-11T09:39:58;-5.50;99.90
6106;DHT22;3083;51.508;7.966;2024-01-11T09:42:26;-5.40;99.90
6106;DHT22;3083;51.508;7.966;2024-01-11T09:44:54;-5.20;99.90
6106;DHT22;3083;51.508;7.966;2024-01-11T09:47:21;-5.00;99.90
6106;DHT22;3083;51.508;7.966;2024-01-11T09:49:49;-4.80;99.90
6106;DHT22;3083;51.508;7.966;2024-01-11T09:52:20;-4.70;99.90
6106;DHT22;3083;51.508;7.966;2024-01-11T09:54:47;-4.50;99.90
6106;DHT22;3083;51.508;7.966;2024-01-11T09:57:15;-4.30;99.90
6106;DHT22;3083;51.508;7.966;2024-01-11T09:59:45;-4.10;99.90
6106;DHT22;3083;51.508;7.966;2024-01-11T10:02:12;-3.90;99.90
6106;DHT22;3083;51.508;7.966;2024-01-11T10:04:42;-3.70;99.90
6106;DHT22;3083;51.508;7.966;2024-01-11T10:07:09;-3.50;99.90
6106;DHT22;3083;51.508;7.966;2024-01-11T10:09:37;-3.40;99.90
6106;DHT22;3083;51.508;7.966;2024-01-11T10:12:05;-3.20;99.90
6106;DHT22;3083;51.508;7.966;2024-01-11T10:14:32;-3.10;99.90
6106;DHT22;3083;51.508;7.966;2024-01-11T10:16:59;-3.00;99.90
6106;DHT22;3083;51.508;7.966;2024-01-11T10:19:26;-2.80;99.90
6106;DHT22;3083;51.508;7.966;2024-01-11T10:21:53;-2.70;99.90
6106;DHT22;3083;51.508;7.966;2024-01-11T10:24:20;-2.60;99.90
6106;DHT22;3083;51.508;7.966;2024-01-11T10:26:51;-2.50;99.90
6106;DHT22;3083;51.508;7.966;2024-01-11T10:29:18;-2.30;99.90
6106;DHT22;3083;51.508;7.966;2024-01-11T10:31:45;-2.20;99.90
6106;DHT22;3083;51.508;7.966;2024-01-11T10:34:12;-2.00;99.90
6106;DHT22;3083;51.508;7.966;2024-01-11T10:36:39;-1.90;99.90
6106;DHT22;3083;51.508;7.966;2024-01-11T10:39:08;-1.70;99.90
6106;DHT22;3083;51.508;7.966;2024-01-11T10:41:39;-1.60;99.90
6106;DHT22;3083;51.508;7.966;2024-01-11T10:44:14;-1.50;99.90
6106;DHT22;3083;51.508;7.966;2024-01-11T10:46:45;-1.30;99.90
6106;DHT22;3083;51.508;7.966;2024-01-11T10:49:17;-1.20;99.90
6106;DHT22;3083;51.508;7.966;2024-01-11T10:51:47;-1.00;99.90
6106;DHT22;3083;51.508;7.966;2024-01-11T10:54:17;-1.00;99.90
6106;DHT22;3083;51.508;7.966;2024-01-11T10:56:45;-1.00;99.90
6106;DHT22;3083;51.508;7.966;2024-01-11T10:59:16;-0.90;99.90
6106;DHT22;3083;51.508;7.966;2024-01-11T11:01:45;-0.80;99.90
6106;DHT22;3083;51.508;7.966;2024-01-11T11:04:13;-0.60;99.90
6106;DHT22;3083;51.508;7.966;2024-01-11T11:06:43;-0.50;99.90
6106;DHT22;3083;51.508;7.966;2024-01-11T11:09:11;-0.40;99.90
6106;DHT22;3083;51.508;7.966;2024-01-11T11:11:40;-0.20;99.90
6106;DHT22;3083;51.508;7.966;2024-01-11T11:14:08;-0.10;99.90
6106;DHT22;3083;51.508;7.966;2024-01-11T11:16:37;0.00;99.90
6106;DHT22;3083;51.508;7.966;2024-01-11T11:19:04;0.10;99.90
6106;DHT22;3083;51.508;7.966;2024-01-11T11:21:30;0.30;99.90
6106;DHT22;3083;51.508;7.966;2024-01-11T11:23:57;0.30;99.90
6106;DHT22;3083;51.508;7.966;2024-01-11T11:26:26;0.40;99.90
6106;DHT22;3083;51.508;7.966;2024-01-11T11:28:53;0.40;99.90
6106;DHT22;3083;51.508;7.966;2024-01-11T11:31:36;0.50;99.90
6106;DHT22;3083;51.508;7.966;2024-01-11T11:34:04;0.60;99.90
6106;DHT22;3083;51.508;7.966;2024-01-11T11:36:33;0.60;99.90
6106;DHT22;3083;51.508;7.966;2024-01-11T11:39:02;0.70;99.90
6106;DHT22;3083;51.508;7.966;2024-01-11T11:41:30;0.80;99.90
6106;DHT22;3083;51.508;7.966;2024-01-11T11:44:00;0.90;99.90
6106;DHT22;3083;51.508;7.966;2024-01-11T11:46:27;1.00;99.90
6106;DHT22;3083;51.508;7.966;2024-01-11T11:48:56;1.10;99.90
6106;DHT22;3083;51.508;7.966;2024-01-11T11:51:23;1.10;99.90
6106;DHT22;3083;51.508;7.966;2024-01-11T11:53:51;1.10;99.90
6106;DHT22;3083;51.508;7.966;2024-01-11T11:56:19;1.00;99.90
6106;DHT22;3083;51.508;7.966;2024-01-11T11:58:48;0.90;99.90
6106;DHT22;3083;51.508;7.966;2024-01-11T12:01:15;0.80;99.90
6106;DHT22;3083;51.508;7.966;2024-01-11T12:03:43;0.60;99.90
6106;DHT22;3083;51.508;7.966;2024-01-11T12:06:16;0.50;99.90
6106;DHT22;3083;51.508;7.966;2024-01-11T12:08:44;0.40;99.90
6106;DHT22;3083;51.508;7.966;2024-01-11T12:11:13;0.30;99.90
6106;DHT22;3083;51.508;7.966;2024-01-11T12:13:41;0.10;99.90
6106;DHT22;3083;51.508;7.966;2024-01-11T12:16:10;-0.10;99.90
6106;DHT22;3083;51.508;7.966;2024-01-11T12:18:37;-0.10;99.90
6106;DHT22;3083;51.508;7.966;2024-01-11T12:21:04;-0.20;99.90
6106;DHT22;3083;51.508;7.966;2024-01-11T12:23:33;-0.20;99.90
6106;DHT22;3083;51.508;7.966;2024-01-11T12:26:01;-0.20;99.90
6106;DHT22;3083;51.508;7.966;2024-01-11T12:28:29;-0.30;99.90
6106;DHT22;3083;51.508;7.966;2024-01-11T12:30:57;-0.40;99.90
6106;DHT22;3083;51.508;7.966;2024-01-11T12:33:25;-0.40;99.90
6106;DHT22;3083;51.508;7.966;2024-01-11T12:35:52;-0.50;99.90
6106;DHT22;3083;51.508;7.966;2024-01-11T12:38:19;-0.50;99.90
6106;DHT22;3083;51.508;7.966;2024-01-11T12:40:48;-0.50;99.90
6106;DHT22;3083;51.508;7.966;2024-01-11T12:43:15;-0.60;99.90
6106;DHT22;3083;51.508;7.966;2024-01-11T12:45:42;-0.50;99.90
6106;DHT22;3083;51.508;7.966;2024-01-11T12:48:09;-0.50;99.90
6106;DHT22;3083;51.508;7.966;2024-01-11T12:50:39;-0.40;99.90
6106;DHT22;3083;51.508;7.966;2024-01-11T12:53:08;-0.30;99.90
6106;DHT22;3083;51.508;7.966;2024-01-11T12:55:35;-0.30;99.90
6106;DHT22;3083;51.508;7.966;2024-01-11T12:58:07;-0.20;99.90
6106;DHT22;3083;51.508;7.966;2024-01-11T13:00:35;-0.20;99.90
6106;DHT22;3083;51.508;7.966;2024-01-11T13:03:03;-0.20;99.90
6106;DHT22;3083;51.508;7.966;2024-01-11T13:05:30;-0.30;99.90
6106;DHT22;3083;51.508;7.966;2024-01-11T13:08:00;-0.30;99.90
6106;DHT22;3083;51.508;7.966;2024-01-11T13:10:28;-0.40;99.90
6106;DHT22;3083;51.508;7.966;2024-01-11T13:12:58;-0.50;99.90
6106;DHT22;3083;51.508;7.966;2024-01-11T13:15:26;-0.60;99.90
6106;DHT22;3083;51.508;7.966;2024-01-11T13:17:54;-0.60;99.90
6106;DHT22;3083;51.508;7.966;2024-01-11T13:20:21;-0.60;99.90
6106;DHT22;3083;51.508;7.966;2024-01-11T13:22:49;-0.60;99.90
6106;DHT22;3083;51.508;7.966;2024-01-11T13:25:16;-0.60;99.90
6106;DHT22;3083;51.508;7.966;2024-01-11T13:27:43;-0.60;99.90
6106;DHT22;3083;51.508;7.966;2024-01-11T13:30:10;-0.60;99.90
6106;DHT22;3083;51.508;7.966;2024-01-11T13:32:40;-0.60;99.90
6106;DHT22;3083;51.508;7.966;2024-01-11T13:35:07;-0.60;99.90
6106;DHT22;3083;51.508;7.966;2024-01-11T13:37:34;-0.60;99.90
6106;DHT22;3083;51.508;7.966;2024-01-11T13:40:01;-0.60;99.90
6106;DHT22;3083;51.508;7.966;2024-01-11T13:42:29;-0.60;99.90
6106;DHT22;3083;51.508;7.966;2024-01-11T13:44:56;-0.60;99.90
6106;DHT22;3083;51.508;7.966;2024-01-11T13:47:22;-0.60;99.90
6106;DHT22;3083;51.508;7.966;2024-01-11T13:49:51;-0.60;99.90
6106;DHT22;3083;51.508;7.966;2024-01-11T13:52:18;-0.60;99.90
6106;DHT22;3083;51.508;7.966;2024-01-11T13:54:44;-0.60;99.90
6106;DHT22;3083;51.508;7.966;2024-01-11T13:57:11;-0.70;99.90
6106;DHT22;3083;51.508;7.966;2024-01-11T13:59:38;-0.70;99.90
6106;DHT22;3083;51.508;7.966;2024-01-11T14:02:05;-0.70;99.90
6106;DHT22;3083;51.508;7.966;2024-01-11T14:04:32;-0.70;99.90
6106;DHT22;3083;51.508;7.966;2024-01-11T14:07:01;-0.80;99.90
6106;DHT22;3083;51.508;7.966;2024-01-11T14:09:28;-0.80;99.90
6106;DHT22;3083;51.508;7.966;2024-01-11T14:11:55;-0.80;99.90
6106;DHT22;3083;51.508;7.966;2024-01-11T14:14:22;-0.90;99.90
6106;DHT22;3083;51.508;7.966;2024-01-11T14:16:49;-0.90;99.90
6106;DHT22;3083;51.508;7.966;2024-01-11T14:19:17;-0.90;99.90
6106;DHT22;3083;51.508;7.966;2024-01-11T14:21:44;-0.90;99.90
6106;DHT22;3083;51.508;7.966;2024-01-11T14:24:12;-0.90;99.90
6106;DHT22;3083;51.508;7.966;2024-01-11T14:26:39;-0.90;99.90
6106;DHT22;3083;51.508;7.966;2024-01-11T14:29:06;-0.90;99.90
6106;DHT22;3083;51.508;7.966;2024-01-11T14:31:32;-0.80;99.90
6106;DHT22;3083;51.508;7.966;2024-01-11T14:33:59;-0.80;99.90
6106;DHT22;3083;51.508;7.966;2024-01-11T14:36:26;-0.70;99.90
6106;DHT22;3083;51.508;7.966;2024-01-11T14:38:53;-0.70;99.90
6106;DHT22;3083;51.508;7.966;2024-01-11T14:41:21;-0.60;99.90
6106;DHT22;3083;51.508;7.966;2024-01-11T14:43:48;-0.50;99.90
6106;DHT22;3083;51.508;7.966;2024-01-11T14:46:15;-0.50;99.90
6106;DHT22;3083;51.508;7.966;2024-01-11T14:48:42;-0.40;99.90
6106;DHT22;3083;51.508;7.966;2024-01-11T14:51:10;-0.40;99.90
6106;DHT22;3083;51.508;7.966;2024-01-11T14:53:37;-0.40;99.90
6106;DHT22;3083;51.508;7.966;2024-01-11T14:56:04;-0.40;99.90
6106;DHT22;3083;51.508;7.966;2024-01-11T14:58:32;-0.40;99.90
6106;DHT22;3083;51.508;7.966;2024-01-11T15:00:59;-0.40;99.90
6106;DHT22;3083;51.508;7.966;2024-01-11T15:03:26;-0.40;99.90
6106;DHT22;3083;51.508;7.966;2024-01-11T15:05:53;-0.50;99.90
6106;DHT22;3083;51.508;7.966;2024-01-11T15:08:20;-0.50;99.90
6106;DHT22;3083;51.508;7.966;2024-01-11T15:10:48;-0.60;99.90
6106;DHT22;3083;51.508;7.966;2024-01-11T15:13:15;-0.60;99.90
6106;DHT22;3083;51.508;7.966;2024-01-11T15:15:43;-0.60;99.90
6106;DHT22;3083;51.508;7.966;2024-01-11T15:18:10;-0.70;99.90
6106;DHT22;3083;51.508;7.966;2024-01-11T15:20:37;-0.70;99.90
6106;DHT22;3083;51.508;7.966;2024-01-11T15:23:03;-0.60;99.90
6106;DHT22;3083;51.508;7.966;2024-01-11T15:25:30;-0.60;99.90
6106;DHT22;3083;51.508;7.966;2024-01-11T15:27:57;-0.70;99.90
6106;DHT22;3083;51.508;7.966;2024-01-11T15:30:24;-0.70;99.90
6106;DHT22;3083;51.508;7.966;2024-01-11T15:32:52;-0.70;99.90
6106;DHT22;3083;51.508;7.966;2024-01-11T15:35:20;-0.80;99.90
6106;DHT22;3083;51.508;7.966;2024-01-11T15:37:47;-0.80;99.90
6106;DHT22;3083;51.508;7.966;2024-01-11T15:40:14;-0.80;99.90
6106;DHT22;3083;51.508;7.966;2024-01-11T15:42:41;-0.80;99.90
6106;DHT22;3083;51.508;7.966;2024-01-11T15:45:08;-0.80;99.90
6106;DHT22;3083;51.508;7.966;2024-01-11T15:47:36;-0.80;99.90
6106;DHT22;3083;51.508;7.966;2024-01-11T15:50:06;-0.80;99.90
6106;DHT22;3083;51.508;7.966;2024-01-11T15:52:36;-0.90;99.90
6106;DHT22;3083;51.508;7.966;2024-01-11T15:55:05;-0.90;99.90
6106;DHT22;3083;51.508;7.966;2024-01-11T15:57:34;-0.90;99.90
6106;DHT22;3083;51.508;7.966;2024-01-11T16:00:02;-0.90;99.90
6106;DHT22;3083;51.508;7.966;2024-01-11T16:02:30;-0.90;99.90